»·PEaware :: N4657 KSBP-L35

N4657 :: KSBP-L35

FLIGHT INFORMATION

Flight Status: Arrived
Operator: Privately registered:
United States
More flights under this callsign
Pilot: Daniel P. (20187)
Aircraft: PILATUS PC-12 EAGLE
(PC12)
More flights by this aircraft type
Origin: KSBP San Luis Co Regl
United States
Destination: L35 Big Bear City
United States
More flights between these airports :: More routes between these airports
Route: FLW LHS L70
File this flight plan on PilotEdge
Remarks:
Altitude:
(Current/Filed)
11,500ft
Speed:
(Current/Filed)
200kts
Departed: 01-Sep-18 08:14 AM
Arrived: 01-Sep-18 09:31 AM
Distance/Time
Traveled:
196nm/1:17
Distance/Time
To Go:
Arrived

Flight Plot

Page will automatically refresh every two minutes.

Flight plan parsing failed; only flown route is shown


Map Options




Map Legend


Flown Route
Filed Route
Departure Airport
Arrival Airport
Navaid (VOR, NDB)
Fix

Horizontal Profiles

Position Reports

Time Latitude Longitude Heading Altitude Ground
Speed
01-Sep-18 07:12 35.238073 -120.638636 270 196ft 0kts
01-Sep-18 07:13 35.238073 -120.638636 270 196ft 0kts
01-Sep-18 07:14 35.238073 -120.638636 270 196ft 0kts
01-Sep-18 07:15 35.238073 -120.638636 270 196ft 0kts
01-Sep-18 07:16 35.238073 -120.638636 270 196ft 0kts
01-Sep-18 07:17 35.238073 -120.638636 270 196ft 0kts
01-Sep-18 07:18 35.238073 -120.638636 270 196ft 0kts
01-Sep-18 07:19 35.238073 -120.638636 270 196ft 0kts
01-Sep-18 07:20 35.238073 -120.638636 270 196ft 0kts
01-Sep-18 07:21 35.238073 -120.638636 270 196ft 0kts
01-Sep-18 07:22 35.238073 -120.638636 270 196ft 0kts
01-Sep-18 07:23 35.238073 -120.638636 270 196ft 0kts
01-Sep-18 07:24 35.238073 -120.638636 270 196ft 0kts
01-Sep-18 07:25 35.238073 -120.638636 270 196ft 0kts
01-Sep-18 07:26 35.238073 -120.638636 270 196ft 0kts
01-Sep-18 07:27 35.238073 -120.638636 270 196ft 0kts
01-Sep-18 07:28 35.238073 -120.638636 270 196ft 0kts
01-Sep-18 07:29 35.238073 -120.638636 270 196ft 0kts
01-Sep-18 07:30 35.238073 -120.638636 270 196ft 0kts
01-Sep-18 07:31 35.238073 -120.638636 270 196ft 0kts
01-Sep-18 07:32 35.238073 -120.638636 270 196ft 0kts
01-Sep-18 07:33 35.238073 -120.638636 270 196ft 0kts
01-Sep-18 07:35 35.238073 -120.638636 270 196ft 0kts
01-Sep-18 07:36 35.238073 -120.638636 270 196ft 0kts
01-Sep-18 07:37 35.238073 -120.638636 270 196ft 0kts
01-Sep-18 07:38 35.238073 -120.638636 270 196ft 0kts
01-Sep-18 07:39 35.238073 -120.638636 270 196ft 0kts
01-Sep-18 07:40 35.238073 -120.638636 270 196ft 0kts
01-Sep-18 07:41 35.238073 -120.638636 270 196ft 0kts
01-Sep-18 07:42 35.238073 -120.638636 270 196ft 0kts
01-Sep-18 07:43 35.238073 -120.638636 270 196ft 0kts
01-Sep-18 07:44 35.238073 -120.638636 270 196ft 0kts
01-Sep-18 07:45 35.238073 -120.638636 270 196ft 0kts
01-Sep-18 07:46 35.238073 -120.638636 270 196ft 0kts
01-Sep-18 07:47 35.238073 -120.638636 270 196ft 0kts
01-Sep-18 07:48 35.238073 -120.638636 270 196ft 0kts
01-Sep-18 07:49 35.238073 -120.638636 270 196ft 0kts
01-Sep-18 07:50 35.238073 -120.638636 270 196ft 0kts
01-Sep-18 07:51 35.238073 -120.638636 270 196ft 0kts
01-Sep-18 07:52 35.238073 -120.638636 270 196ft 0kts
01-Sep-18 07:53 35.238073 -120.638636 270 196ft 0kts
01-Sep-18 07:54 35.238073 -120.638636 270 196ft 0kts
01-Sep-18 07:55 35.238073 -120.638636 270 196ft 0kts
01-Sep-18 07:56 35.238073 -120.638636 270 196ft 0kts
01-Sep-18 07:57 35.238073 -120.638636 270 196ft 0kts
01-Sep-18 07:57 35.238073 -120.638636 270 196ft 0kts
01-Sep-18 07:58 35.238073 -120.638636 270 196ft 0kts
01-Sep-18 08:00 35.238073 -120.638636 270 196ft 0kts
01-Sep-18 08:01 35.238073 -120.638636 270 196ft 0kts
01-Sep-18 08:01 35.238073 -120.638636 270 196ft 0kts
01-Sep-18 08:02 35.238073 -120.638636 270 196ft 0kts
01-Sep-18 08:03 35.238073 -120.638636 270 196ft 0kts
01-Sep-18 08:04 35.238073 -120.638636 270 196ft 0kts
01-Sep-18 08:05 35.238073 -120.638636 270 196ft 0kts
01-Sep-18 08:06 35.238073 -120.638636 270 196ft 0kts
01-Sep-18 08:07 35.238073 -120.638636 270 196ft 0kts
01-Sep-18 08:08 35.237393 -120.638985 162 195ft 10kts
01-Sep-18 08:09 35.235572 -120.635984 124 207ft 14kts
01-Sep-18 08:10 35.233696 -120.632698 122 212ft 10kts
01-Sep-18 08:11 35.233199 -120.632138 238 213ft 0kts
01-Sep-18 08:12 35.233199 -120.632138 238 213ft 0kts
01-Sep-18 08:13 35.233199 -120.632138 238 213ft 0kts
01-Sep-18 08:14 35.233199 -120.632138 238 213ft 0kts
01-Sep-18 08:15 35.233955 -120.635083 304 208ft 60kts
01-Sep-18 08:16 35.247969 -120.663866 295 791ft 105kts
01-Sep-18 08:17 35.276401 -120.663052 57 1693ft 162kts
01-Sep-18 08:20 35.238073 -120.638636 270 196ft 0kts
01-Sep-18 08:21 35.238073 -120.638636 270 196ft 0kts
01-Sep-18 08:22 35.238073 -120.638636 270 196ft 0kts
01-Sep-18 08:23 35.238073 -120.638636 270 196ft 0kts
01-Sep-18 08:24 35.238073 -120.638636 270 196ft 0kts
01-Sep-18 08:25 35.238073 -120.638636 270 196ft 0kts
01-Sep-18 08:26 35.238073 -120.638636 270 196ft 0kts
01-Sep-18 08:27 35.238073 -120.638636 270 196ft 0kts
01-Sep-18 08:28 35.238073 -120.638636 270 196ft 0kts
01-Sep-18 08:29 35.238073 -120.638636 270 196ft 0kts
01-Sep-18 08:30 35.238073 -120.638636 270 196ft 0kts
01-Sep-18 08:31 35.238047 -120.638753 232 196ft 4kts
01-Sep-18 08:32 35.237830 -120.638974 222 195ft 0kts
01-Sep-18 08:33 35.235813 -120.636413 125 205ft 18kts
01-Sep-18 08:34 35.233279 -120.632369 203 212ft 6kts
01-Sep-18 08:35 35.232793 -120.633034 309 211ft 7kts
01-Sep-18 08:36 35.245155 -120.656811 300 868ft 146kts
01-Sep-18 08:37 35.280830 -120.652174 64 2382ft 199kts
01-Sep-18 08:38 35.270256 -120.584739 102 4182ft 210kts
01-Sep-18 08:39 35.254039 -120.516138 103 6020ft 212kts
01-Sep-18 08:40 35.237203 -120.446994 103 7870ft 214kts
01-Sep-18 08:41 35.220298 -120.378056 103 9875ft 210kts
01-Sep-18 08:42 35.203818 -120.310733 104 11493ft 227kts
01-Sep-18 08:43 35.183751 -120.229608 104 11503ft 260kts
01-Sep-18 08:44 35.163215 -120.146719 104 11503ft 261kts
01-Sep-18 08:45 35.144745 -120.072201 104 11503ft 261kts
01-Sep-18 08:46 35.123860 -119.988186 104 11503ft 261kts
01-Sep-18 08:47 35.102788 -119.903680 104 11504ft 261kts
01-Sep-18 08:48 35.079609 -119.821809 108 11503ft 249kts
01-Sep-18 08:49 35.055313 -119.743976 108 11504ft 244kts
01-Sep-18 08:50 35.031017 -119.666399 108 11475ft 244kts
01-Sep-18 08:51 35.006728 -119.589076 108 11464ft 245kts
01-Sep-18 08:52 34.982194 -119.511135 107 11442ft 247kts
01-Sep-18 08:53 34.957428 -119.432626 107 11429ft 248kts
01-Sep-18 08:54 34.932514 -119.353871 107 11420ft 250kts
01-Sep-18 08:55 34.908417 -119.277900 107 11412ft 252kts
01-Sep-18 08:56 34.883199 -119.198615 107 11448ft 253kts
01-Sep-18 08:57 34.857597 -119.118244 107 11510ft 257kts
01-Sep-18 08:58 34.831462 -119.036546 107 11575ft 260kts
01-Sep-18 08:59 34.805168 -118.954309 109 11582ft 262kts
01-Sep-18 09:00 34.778731 -118.872129 110 11583ft 260kts
01-Sep-18 09:01 34.752326 -118.790556 110 11583ft 258kts
01-Sep-18 09:02 34.726057 -118.709480 110 11583ft 257kts
01-Sep-18 09:03 34.700011 -118.629127 110 11573ft 257kts
01-Sep-18 09:04 34.667741 -118.553950 131 11574ft 253kts
01-Sep-18 09:05 34.622240 -118.488275 130 11526ft 254kts
01-Sep-18 09:06 34.576851 -118.422260 130 11500ft 254kts
01-Sep-18 09:07 34.531623 -118.356602 130 11495ft 254kts
01-Sep-18 09:08 34.494114 -118.287526 101 11495ft 254kts
01-Sep-18 09:09 34.484993 -118.202815 100 11511ft 254kts
01-Sep-18 09:10 34.471628 -118.118501 100 11503ft 255kts
01-Sep-18 09:11 34.458152 -118.033973 100 11501ft 255kts
01-Sep-18 09:12 34.444658 -117.949703 100 11510ft 255kts
01-Sep-18 09:13 34.431090 -117.865363 100 11523ft 255kts
01-Sep-18 09:14 34.417504 -117.781310 100 11530ft 255kts
01-Sep-18 09:15 34.403823 -117.696691 100 11530ft 255kts
01-Sep-18 09:16 34.390099 -117.612400 100 11529ft 255kts
01-Sep-18 09:17 34.376424 -117.528995 100 11532ft 249kts
01-Sep-18 09:18 34.362929 -117.446956 100 11537ft 248kts
01-Sep-18 09:19 34.349646 -117.367245 100 11052ft 233kts
01-Sep-18 09:20 34.337188 -117.292115 100 10451ft 226kts
01-Sep-18 09:21 34.325221 -117.220265 100 10310ft 206kts
01-Sep-18 09:22 34.314450 -117.155832 100 10306ft 185kts
01-Sep-18 09:23 34.304571 -117.096817 100 10317ft 175kts
01-Sep-18 09:24 34.295022 -117.039988 101 10361ft 169kts
01-Sep-18 09:25 34.285708 -116.984792 101 10278ft 173kts
01-Sep-18 09:26 34.278176 -116.925415 79 9890ft 183kts
01-Sep-18 09:27 34.286048 -116.875516 85 9278ft 135kts
01-Sep-18 09:28 34.286638 -116.829964 88 8662ft 131kts
01-Sep-18 09:29 34.272597 -116.800149 177 8107ft 114kts
01-Sep-18 09:30 34.264104 -116.825419 272 7293ft 87kts
01-Sep-18 09:31 34.263789 -116.853130 267 6752ft 41kts
01-Sep-18 09:32 34.263260 -116.855496 92 6752ft 11kts
01-Sep-18 09:33 34.262285 -116.854376 157 6752ft 7kts
01-Sep-18 09:34 34.262188 -116.854030 84 6752ft 0kts
01-Sep-18 09:35 34.262188 -116.854030 84 6752ft 0kts
01-Sep-18 09:36 34.262188 -116.854030 84 6752ft 0kts
01-Sep-18 09:37 34.262188 -116.854030 84 6752ft 0kts
01-Sep-18 09:38 34.262188 -116.854030 84 6752ft 0kts
01-Sep-18 09:39 34.262188 -116.854030 84 6752ft 0kts
01-Sep-18 09:40 34.262188 -116.854030 84 6752ft 0kts
01-Sep-18 09:41 34.262188 -116.854030 84 6752ft 0kts
01-Sep-18 09:43 34.262188 -116.854030 84 6752ft 0kts
01-Sep-18 09:44 34.262188 -116.854030 84 6752ft 0kts
01-Sep-18 09:45 34.262188 -116.854030 84 6752ft 0kts
01-Sep-18 09:46 34.262188 -116.854030 84 6752ft 0kts
01-Sep-18 09:47 34.262188 -116.854030 84 6752ft 0kts

Navigation Log

Ident Type
Flight plan parsing failed, navigation log unavailable